West Branch, Iowa
Current Conditions -  °F | °C
As of 10:52 AM on Tuesday 27 Jan 2015 (Local Time) from KIOW Reporting Station
Overcast Overcast  
Wind Chill: 27°   Ceiling: 1900
Heat Index: 33°   Visibility: 10mi
Dew Point: 27°   Wind: 7mph
Humidity: 78%   Direction: 60°ENE
Pressure: 30.21"   Gusts: NA
Location:  41.67°N, 91.35°W
Report Text: KIOW 271652Z AUTO 06006KT 10SM OVC019 01/M03 A3021 RMK AO2 SLP235 T00061028
Loading
Personal Weather Stations






























Interactive Weather Map New forecast layout! Learn more

10-Day Weather Forecast

Advertisements
Track Severe Weather on mobile